createdAt,value
2023-05-19T00:00:12.692Z,84.86
2023-05-19T00:02:33.928Z,85.58
2023-05-19T00:04:33.828Z,86.27
2023-05-19T00:06:34.973Z,86.24
2023-05-19T00:08:34.703Z,86.83
2023-05-19T00:10:33.282Z,87.89
2023-05-19T00:12:33.884Z,88.10
2023-05-19T00:14:33.141Z,88.87
2023-05-19T00:16:34.178Z,88.78
2023-05-19T00:18:36.130Z,88.92
2023-05-19T00:20:38.785Z,89.41
2023-05-19T00:22:37.537Z,89.45
2023-05-19T00:24:52.839Z,89.23
2023-05-19T00:26:49.442Z,89.67
2023-05-19T00:28:56.788Z,90.75
2023-05-19T00:30:58.782Z,91.28
2023-05-19T00:32:57.224Z,91.13
2023-05-19T00:34:57.655Z,91.21
2023-05-19T00:36:58.978Z,91.41
2023-05-19T00:38:55.170Z,91.41
2023-05-19T00:40:50.611Z,91.36
2023-05-19T00:42:46.702Z,90.93
2023-05-19T00:44:46.952Z,90.74
2023-05-19T00:46:42.776Z,90.81
2023-05-19T00:48:38.200Z,91.07
2023-05-19T00:50:53.470Z,90.61
2023-05-19T00:53:11.524Z,91.88
2023-05-19T00:55:18.066Z,91.51
2023-05-19T00:57:18.094Z,92.05
2023-05-19T01:04:59.759Z,91.92
2023-05-19T01:05:10.553Z,93.09
2023-05-19T01:07:13.260Z,94.03
2023-05-19T01:15:35.010Z,95.39
2023-05-19T01:21:23.118Z,95.93
2023-05-19T01:23:34.092Z,96.06
2023-05-19T01:25:49.356Z,95.73
2023-05-19T01:28:19.119Z,96.18
2023-05-19T01:30:33.206Z,96.42
2023-05-19T01:32:30.167Z,96.75
2023-05-19T01:34:34.074Z,97.12
2023-05-19T01:36:37.608Z,96.70
2023-05-19T01:38:33.445Z,96.49
2023-05-19T01:40:31.745Z,96.60
2023-05-19T01:42:42.641Z,97.07
2023-05-19T01:44:42.764Z,97.25
2023-05-19T01:46:42.684Z,97.44
2023-05-19T01:48:38.747Z,97.00
2023-05-19T01:50:34.857Z,97.37
2023-05-19T01:52:31.457Z,97.24
2023-05-19T01:54:32.927Z,97.74
2023-05-19T01:56:40.098Z,97.75
2023-05-19T01:58:46.877Z,97.50
2023-05-19T02:00:54.304Z,97.08
2023-05-19T02:03:03.947Z,97.15
2023-05-19T02:05:03.302Z,97.86
2023-05-19T02:07:04.258Z,97.45
2023-05-19T02:09:05.284Z,97.67
2023-05-19T02:11:05.488Z,97.89
2023-05-19T02:13:04.179Z,98.44
2023-05-19T02:15:06.787Z,98.30
2023-05-19T02:17:01.055Z,98.79
2023-05-19T02:18:59.666Z,99.38
2023-05-19T02:20:55.176Z,100.00
2023-05-19T02:22:50.841Z,100.00
2023-05-19T02:24:47.886Z,100.00
2023-05-19T02:26:43.008Z,100.00
2023-05-19T02:28:39.366Z,100.00
2023-05-19T02:30:34.621Z,100.00
2023-05-19T02:32:30.167Z,100.00
2023-05-19T02:34:27.933Z,100.00
2023-05-19T02:36:23.363Z,100.00
2023-05-19T02:38:18.857Z,100.00
2023-05-19T02:40:14.913Z,100.00
2023-05-19T02:42:10.469Z,100.00
2023-05-19T02:44:06.496Z,100.00
2023-05-19T02:46:01.864Z,100.00
2023-05-19T02:47:57.598Z,100.00
2023-05-19T02:49:55.838Z,100.00
2023-05-19T02:51:51.539Z,100.00
2023-05-19T02:53:46.921Z,100.00
2023-05-19T02:55:42.628Z,100.00
2023-05-19T02:57:38.238Z,100.00
2023-05-19T02:59:34.077Z,100.00
2023-05-19T03:01:29.572Z,100.00
2023-05-19T03:03:26.177Z,100.00
2023-05-19T03:05:24.316Z,100.00
2023-05-19T03:07:25.208Z,100.00
2023-05-19T03:09:20.821Z,100.00
2023-05-19T03:11:16.723Z,100.00
2023-05-19T03:13:12.196Z,100.00
2023-05-19T03:15:09.137Z,100.00
2023-05-19T03:17:04.536Z,100.00
2023-05-19T03:19:00.370Z,100.00
2023-05-19T03:20:58.090Z,100.00
2023-05-19T03:22:53.709Z,100.00
2023-05-19T03:24:51.190Z,100.00
2023-05-19T03:26:46.669Z,100.00
2023-05-19T03:28:41.730Z,100.00
2023-05-19T03:30:37.388Z,100.00
2023-05-19T03:32:33.005Z,100.00
2023-05-19T03:34:28.528Z,100.00
2023-05-19T03:36:26.398Z,100.00
2023-05-19T03:38:21.749Z,100.00
2023-05-19T03:40:18.957Z,100.00
2023-05-19T03:42:14.403Z,100.00
2023-05-19T03:44:09.506Z,100.00
2023-05-19T03:46:05.083Z,100.00
2023-05-19T03:48:00.304Z,100.00
2023-05-19T03:49:56.199Z,100.00
2023-05-19T03:51:53.872Z,100.00
2023-05-19T03:53:49.271Z,100.00
2023-05-19T03:55:44.959Z,100.00
2023-05-19T03:57:41.421Z,100.00
2023-05-19T03:59:37.338Z,100.00
2023-05-19T04:01:32.753Z,100.00
2023-05-19T04:03:28.680Z,100.00
2023-05-19T04:05:24.263Z,100.00
2023-05-19T04:07:21.952Z,100.00
2023-05-19T04:09:19.569Z,100.00
2023-05-19T04:11:15.278Z,100.00
2023-05-19T04:13:11.688Z,100.00
2023-05-19T04:15:07.712Z,100.00
2023-05-19T04:17:03.208Z,100.00
2023-05-19T04:18:58.455Z,100.00
2023-05-19T04:20:54.021Z,100.00
2023-05-19T04:22:51.649Z,100.00
2023-05-19T04:24:47.776Z,100.00
2023-05-19T04:26:46.236Z,100.00
2023-05-19T04:28:42.539Z,100.00
2023-05-19T04:30:38.764Z,100.00
2023-05-19T04:32:34.164Z,100.00
2023-05-19T04:34:29.357Z,100.00
2023-05-19T04:36:24.746Z,100.00
2023-05-19T04:38:22.416Z,100.00
2023-05-19T04:40:17.798Z,100.00
2023-05-19T04:42:13.432Z,100.00
2023-05-19T04:44:09.136Z,100.00
2023-05-19T04:46:06.276Z,100.00
2023-05-19T04:48:02.120Z,100.00
2023-05-19T04:49:58.242Z,100.00
2023-05-19T04:51:55.896Z,100.00
2023-05-19T04:53:54.355Z,100.00
2023-05-19T04:55:50.365Z,100.00
2023-05-19T04:57:45.444Z,100.00
2023-05-19T04:59:40.877Z,100.00
2023-05-19T05:01:40.305Z,100.00
2023-05-19T05:03:35.990Z,100.00
2023-05-19T05:05:31.226Z,100.00
2023-05-19T05:07:27.149Z,100.00
2023-05-19T05:09:24.764Z,100.00
2023-05-19T05:11:20.779Z,100.00
2023-05-19T05:13:16.516Z,100.00
2023-05-19T05:15:13.680Z,100.00
2023-05-19T05:17:09.784Z,100.00
2023-05-19T05:19:06.649Z,100.00
2023-05-19T05:21:03.039Z,100.00
2023-05-19T05:22:59.419Z,100.00
2023-05-19T05:24:58.126Z,100.00
2023-05-19T05:26:54.539Z,100.00
2023-05-19T05:28:49.947Z,100.00
2023-05-19T05:30:46.470Z,100.00
2023-05-19T05:32:42.061Z,100.00
2023-05-19T05:34:40.021Z,100.00
2023-05-19T05:36:37.214Z,100.00
2023-05-19T05:38:34.550Z,100.00
2023-05-19T05:40:32.654Z,100.00
2023-05-19T05:42:29.711Z,100.00
2023-05-19T05:44:24.961Z,100.00
2023-05-19T05:46:21.719Z,100.00
2023-05-19T05:48:17.634Z,100.00
2023-05-19T05:50:14.385Z,100.00
2023-05-19T05:52:12.655Z,100.00
2023-05-19T05:54:09.865Z,100.00
2023-05-19T05:56:08.466Z,100.00
2023-05-19T05:58:04.483Z,100.00
2023-05-19T05:59:59.899Z,100.00
2023-05-19T06:01:55.394Z,100.00
2023-05-19T06:03:50.644Z,100.00
2023-05-19T06:05:46.120Z,100.00
2023-05-19T06:07:41.455Z,100.00
2023-05-19T06:09:36.964Z,100.00
2023-05-19T06:11:35.602Z,100.00
2023-05-19T06:13:31.319Z,100.00
2023-05-19T06:15:26.804Z,100.00
2023-05-19T06:17:22.317Z,100.00
2023-05-19T06:19:17.438Z,100.00
2023-05-19T06:21:13.684Z,100.00
2023-05-19T06:23:08.979Z,100.00
2023-05-19T06:25:04.558Z,100.00
2023-05-19T06:27:02.150Z,100.00
2023-05-19T06:28:57.646Z,100.00
2023-05-19T06:30:52.719Z,100.00
2023-05-19T06:32:48.124Z,100.00
2023-05-19T06:34:43.248Z,100.00
2023-05-19T06:36:38.647Z,100.00
2023-05-19T06:38:33.803Z,100.00
2023-05-19T06:40:29.511Z,100.00
2023-05-19T06:42:27.339Z,100.00
2023-05-19T06:44:22.787Z,100.00
2023-05-19T06:46:18.017Z,100.00
2023-05-19T06:48:13.575Z,100.00
2023-05-19T06:50:09.307Z,100.00
2023-05-19T06:52:04.717Z,100.00
2023-05-19T06:53:59.862Z,100.00
2023-05-19T06:55:59.909Z,100.00
2023-05-19T06:57:58.266Z,100.00
2023-05-19T06:59:53.858Z,100.00
2023-05-19T07:01:51.470Z,100.00
2023-05-19T07:03:47.024Z,100.00
2023-05-19T07:05:42.360Z,100.00
2023-05-19T07:07:37.675Z,100.00
2023-05-19T07:09:32.798Z,100.00
2023-05-19T07:11:29.760Z,100.00
2023-05-19T07:13:28.859Z,100.00
2023-05-19T07:15:24.759Z,100.00
2023-05-19T07:17:20.641Z,100.00
2023-05-19T07:19:16.327Z,100.00
2023-05-19T07:21:11.591Z,100.00
2023-05-19T07:23:07.110Z,100.00
2023-05-19T07:25:02.421Z,100.00
2023-05-19T07:26:58.266Z,100.00
2023-05-19T07:28:56.342Z,100.00
2023-05-19T07:30:53.293Z,100.00
2023-05-19T07:32:48.538Z,100.00
2023-05-19T07:34:44.275Z,100.00
2023-05-19T07:36:39.562Z,100.00
2023-05-19T07:38:36.276Z,100.00
2023-05-19T07:40:32.001Z,100.00
2023-05-19T07:42:28.071Z,100.00
2023-05-19T07:44:27.282Z,100.00
2023-05-19T07:46:23.693Z,100.00
2023-05-19T07:48:19.217Z,100.00
2023-05-19T07:50:14.923Z,100.00
2023-05-19T07:52:10.516Z,100.00
2023-05-19T07:54:08.489Z,100.00
2023-05-19T07:56:03.700Z,100.00
2023-05-19T07:57:59.140Z,100.00
2023-05-19T07:59:56.819Z,100.00
2023-05-19T08:01:52.400Z,100.00
2023-05-19T08:03:47.908Z,100.00
2023-05-19T08:05:43.464Z,100.00
2023-05-19T08:07:38.618Z,100.00
2023-05-19T08:09:34.333Z,100.00
2023-05-19T08:11:29.563Z,100.00
2023-05-19T08:13:25.048Z,100.00
2023-05-19T08:15:23.085Z,100.00
2023-05-19T08:17:18.559Z,100.00
2023-05-19T08:19:28.747Z,100.00
2023-05-19T08:21:30.210Z,100.00
2023-05-19T08:23:42.179Z,100.00
2023-05-19T08:25:42.323Z,99.98
2023-05-19T08:27:41.162Z,100.00
2023-05-19T08:43:14.662Z,92.46
2023-05-19T08:45:46.751Z,91.18
2023-05-19T08:47:47.342Z,88.56
2023-05-19T08:49:48.542Z,81.14
2023-05-19T08:51:53.088Z,76.89
2023-05-19T08:53:57.942Z,77.01
2023-05-19T08:56:04.837Z,79.54
2023-05-19T08:58:01.305Z,81.43
2023-05-19T09:00:00.435Z,77.32
2023-05-19T09:01:58.198Z,75.53
2023-05-19T09:03:58.901Z,78.54
2023-05-19T09:05:58.283Z,81.52
2023-05-19T09:08:07.633Z,85.33
2023-05-19T09:10:09.437Z,87.61
2023-05-19T09:12:05.770Z,84.65
2023-05-19T09:14:01.440Z,78.82
2023-05-19T09:15:59.282Z,74.29
2023-05-19T09:17:55.492Z,69.91
2023-05-19T09:19:56.944Z,69.89
2023-05-19T09:22:03.668Z,72.03
2023-05-19T09:24:14.193Z,67.71
2023-05-19T09:26:11.620Z,65.26
2023-05-19T09:28:07.933Z,67.54
2023-05-19T09:30:11.173Z,67.18
2023-05-19T09:32:09.193Z,63.89
2023-05-19T09:34:37.526Z,58.42
2023-05-19T09:36:45.442Z,60.69
2023-05-19T09:38:50.308Z,58.56
2023-05-19T09:41:14.506Z,58.08
2023-05-19T09:43:31.822Z,55.93
2023-05-19T09:45:33.517Z,57.14
2023-05-19T09:47:29.337Z,56.97
2023-05-19T09:49:24.972Z,59.79
2023-05-19T09:51:21.507Z,61.93
2023-05-19T09:53:20.342Z,61.24
2023-05-19T09:55:16.363Z,62.31
2023-05-19T09:57:11.800Z,61.52
2023-05-19T09:59:07.924Z,60.88
2023-05-19T10:01:04.515Z,62.28
2023-05-19T10:03:02.212Z,62.37
2023-05-19T10:04:58.464Z,62.06
2023-05-19T10:06:56.160Z,57.95
2023-05-19T10:08:55.672Z,55.71
2023-05-19T10:10:51.435Z,54.97
2023-05-19T10:12:46.913Z,53.43
2023-05-19T10:14:44.076Z,52.79
2023-05-19T10:16:39.546Z,54.08
2023-05-19T10:18:38.383Z,53.18
2023-05-19T10:20:36.414Z,51.69
2023-05-19T10:22:31.905Z,52.53
2023-05-19T10:24:29.608Z,50.89
2023-05-19T10:26:26.546Z,50.56
2023-05-19T10:28:25.700Z,51.26
2023-05-19T10:30:26.684Z,51.45
2023-05-19T10:32:26.238Z,50.57
2023-05-19T10:34:40.965Z,49.70
2023-05-19T10:36:52.678Z,47.46
2023-05-19T10:38:53.723Z,47.50
2023-05-19T10:41:01.162Z,45.47
2023-05-19T10:43:08.281Z,46.38
2023-05-19T10:45:16.403Z,48.04
2023-05-19T10:47:12.685Z,47.39
2023-05-19T10:49:10.412Z,46.75
2023-05-19T10:51:25.271Z,47.00
2023-05-19T11:12:44.241Z,47.91
2023-05-19T11:14:41.308Z,47.90
2023-05-19T11:16:38.394Z,46.57
2023-05-19T11:18:35.635Z,45.50
2023-05-19T11:20:35.107Z,45.59
2023-05-19T11:22:32.325Z,45.71
2023-05-19T11:24:40.305Z,44.95
2023-05-19T11:26:56.776Z,46.01
2023-05-19T11:28:56.835Z,45.83
2023-05-19T11:30:52.789Z,45.33
2023-05-19T11:32:51.167Z,45.19
2023-05-19T11:34:48.727Z,45.63
2023-05-19T11:36:49.851Z,45.12
2023-05-19T11:39:08.869Z,45.88
2023-05-19T12:11:12.071Z,44.17
2023-05-19T12:38:09.197Z,41.65
2023-05-19T12:51:38.171Z,44.51
2023-05-19T13:08:09.980Z,40.50
2023-05-19T13:10:19.853Z,40.13
2023-05-19T13:13:01.575Z,40.63
2023-05-19T13:17:08.736Z,40.72
2023-05-19T13:37:09.934Z,41.08
2023-05-19T14:10:10.316Z,39.13
2023-05-19T14:15:24.337Z,39.49
2023-05-19T14:18:04.995Z,39.58
2023-05-19T14:20:29.463Z,40.20
2023-05-19T14:22:31.491Z,40.28
2023-05-19T14:24:26.944Z,40.29
2023-05-19T14:26:43.342Z,38.85
2023-05-19T14:28:39.632Z,38.85
2023-05-19T14:30:36.342Z,39.91
2023-05-19T14:32:34.995Z,39.86
2023-05-19T14:34:31.072Z,39.97
2023-05-19T14:36:26.688Z,39.89
2023-05-19T14:38:22.687Z,40.20
2023-05-19T14:40:18.572Z,40.12
2023-05-19T14:42:20.684Z,40.01
2023-05-19T14:44:27.079Z,40.30
2023-05-19T14:46:23.459Z,40.33
2023-05-19T14:51:44.147Z,40.45
2023-05-19T15:01:50.310Z,40.43
2023-05-19T15:07:39.446Z,39.01
2023-05-19T15:10:26.767Z,39.34
2023-05-19T15:12:30.594Z,39.34
2023-05-19T15:14:31.359Z,38.65
2023-05-19T15:16:36.756Z,39.26
2023-05-19T15:18:36.647Z,38.60
2023-05-19T15:20:37.238Z,39.42
2023-05-19T15:22:42.661Z,39.98
2023-05-19T15:50:07.375Z,39.99
2023-05-19T15:52:20.565Z,40.61
2023-05-19T15:54:25.413Z,40.04
2023-05-19T15:56:22.750Z,39.26
2023-05-19T15:58:19.066Z,39.58
2023-05-19T16:00:20.339Z,40.26
2023-05-19T16:11:33.225Z,39.42
2023-05-19T16:14:29.441Z,40.31
2023-05-19T16:16:57.870Z,39.31
2023-05-19T16:20:38.819Z,39.56
2023-05-19T16:23:19.131Z,39.86
2023-05-19T16:25:30.077Z,40.22
2023-05-19T16:27:59.868Z,39.92
2023-05-19T16:30:49.368Z,40.38
2023-05-19T16:35:40.165Z,39.60
2023-05-19T16:37:37.531Z,39.72
2023-05-19T16:39:38.787Z,39.21
2023-05-19T16:42:37.936Z,39.10
2023-05-19T16:44:40.950Z,38.71
2023-05-19T16:50:56.040Z,39.65
2023-05-19T16:53:11.798Z,40.05
2023-05-19T16:55:31.011Z,39.79
2023-05-19T16:57:28.967Z,39.53
2023-05-19T16:59:25.586Z,39.87
2023-05-19T17:01:21.499Z,40.40
2023-05-19T17:03:17.573Z,40.46
2023-05-19T17:10:10.257Z,41.05
2023-05-19T17:16:01.723Z,41.08
2023-05-19T17:18:12.602Z,41.37
2023-05-19T17:20:23.429Z,41.78
2023-05-19T17:22:28.762Z,41.69
2023-05-19T17:24:25.876Z,42.22
2023-05-19T17:26:21.743Z,42.96
2023-05-19T17:28:23.115Z,42.21
2023-05-19T17:30:34.876Z,41.93
2023-05-19T17:32:36.003Z,42.53
2023-05-19T17:34:31.741Z,42.30
2023-05-19T17:36:30.071Z,42.91
2023-05-19T17:38:25.209Z,42.99
2023-05-19T17:40:21.096Z,42.47
2023-05-19T17:42:18.580Z,42.59
2023-05-19T17:44:20.877Z,42.64
2023-05-19T17:46:20.786Z,42.56
2023-05-19T17:49:00.362Z,43.58
2023-05-19T17:54:25.839Z,44.14
2023-05-19T17:57:34.356Z,44.02
2023-05-19T17:59:55.750Z,43.71
2023-05-19T18:06:08.569Z,42.90
2023-05-19T18:08:13.717Z,44.01
2023-05-19T18:11:02.013Z,43.59
2023-05-19T18:14:04.201Z,44.29
2023-05-19T18:20:03.434Z,43.70
2023-05-19T18:22:26.757Z,43.82
2023-05-19T18:24:35.978Z,44.44
2023-05-19T18:26:38.406Z,44.67
2023-05-19T18:33:06.038Z,45.01
2023-05-19T18:38:54.693Z,46.34
2023-05-19T18:41:57.397Z,47.22
2023-05-19T18:44:39.015Z,47.70
2023-05-19T18:47:18.177Z,47.51
2023-05-19T18:49:29.979Z,47.91
2023-05-19T18:51:32.156Z,48.13
2023-05-19T18:53:27.925Z,48.80
2023-05-19T18:55:24.273Z,49.06
2023-05-19T18:57:20.074Z,49.58
2023-05-19T18:59:17.671Z,50.06
2023-05-19T19:01:16.877Z,50.12
2023-05-19T19:03:14.211Z,50.05
2023-05-19T19:05:11.128Z,50.30
2023-05-19T19:07:09.906Z,50.87
2023-05-19T19:09:06.288Z,51.17
2023-05-19T19:11:03.131Z,51.18
2023-05-19T19:13:00.132Z,51.49
2023-05-19T19:14:58.278Z,51.27
2023-05-19T19:16:58.350Z,51.20
2023-05-19T19:18:56.401Z,52.08
2023-05-19T19:20:52.685Z,51.62
2023-05-19T19:22:52.951Z,52.26
2023-05-19T19:24:50.712Z,52.19
2023-05-19T19:26:48.145Z,52.41
2023-05-19T19:28:44.693Z,52.56
2023-05-19T19:30:41.823Z,52.76
2023-05-19T19:32:40.327Z,52.87
2023-05-19T19:34:42.360Z,53.11
2023-05-19T19:36:39.393Z,53.53
2023-05-19T19:38:37.448Z,53.85
2023-05-19T19:40:35.335Z,54.26
2023-05-19T19:42:37.035Z,54.21
2023-05-19T19:44:33.345Z,54.63
2023-05-19T19:46:30.390Z,54.73
2023-05-19T19:48:33.716Z,55.18
2023-05-19T19:50:30.763Z,55.35
2023-05-19T19:52:26.820Z,56.16
2023-05-19T19:54:25.823Z,56.61
2023-05-19T19:56:24.133Z,57.19
2023-05-19T19:58:21.383Z,57.75
2023-05-19T20:00:18.351Z,58.97
2023-05-19T20:02:14.355Z,58.98
2023-05-19T20:04:19.366Z,59.17
2023-05-19T20:06:15.048Z,58.72
2023-05-19T20:08:11.061Z,58.57
2023-05-19T20:10:09.883Z,58.79
2023-05-19T20:12:05.849Z,58.96
2023-05-19T20:14:05.526Z,59.24
2023-05-19T20:16:39.022Z,59.88
2023-05-19T20:19:22.690Z,59.97
2023-05-19T20:26:21.958Z,60.85
2023-05-19T20:28:26.228Z,60.95
2023-05-19T20:30:53.751Z,60.84
2023-05-19T20:32:50.459Z,61.72
2023-05-19T20:34:46.082Z,62.29
2023-05-19T20:36:44.717Z,62.17
2023-05-19T20:38:40.693Z,62.78
2023-05-19T20:40:36.957Z,63.60
2023-05-19T20:42:34.312Z,64.13
2023-05-19T20:44:30.164Z,64.49
2023-05-19T20:46:25.699Z,65.30
2023-05-19T20:48:21.851Z,65.63
2023-05-19T20:50:37.110Z,65.96
2023-05-19T20:52:42.888Z,65.96
2023-05-19T20:54:56.302Z,66.35
2023-05-19T20:57:10.336Z,66.96
2023-05-19T20:59:29.641Z,67.45
2023-05-19T21:01:45.633Z,68.17
2023-05-19T21:03:59.944Z,68.89
2023-05-19T21:06:02.059Z,69.40
2023-05-19T21:08:01.709Z,69.27
2023-05-19T21:12:59.000Z,69.85
2023-05-19T21:21:59.609Z,72.39
2023-05-19T21:27:10.059Z,73.33
2023-05-19T21:29:11.624Z,78.94
2023-05-19T21:31:10.528Z,75.77
2023-05-19T21:33:14.740Z,75.64
2023-05-19T21:35:12.570Z,75.33
2023-05-19T21:37:33.863Z,76.29
2023-05-19T21:50:11.123Z,77.18
2023-05-19T21:52:11.308Z,78.20
2023-05-19T21:54:11.924Z,78.85
2023-05-19T21:56:10.367Z,79.73
2023-05-19T21:58:06.438Z,80.43
2023-05-19T22:00:02.340Z,81.21
2023-05-19T22:01:58.534Z,80.12
2023-05-19T22:03:55.584Z,80.83
2023-05-19T22:05:54.459Z,81.84
2023-05-19T22:07:52.630Z,82.76
2023-05-19T22:09:48.993Z,82.80
2023-05-19T22:11:44.537Z,83.71
2023-05-19T22:13:41.309Z,84.54
2023-05-19T22:15:36.894Z,85.16
2023-05-19T22:17:32.300Z,86.17
2023-05-19T22:19:28.013Z,86.67
2023-05-19T22:21:23.896Z,86.55
2023-05-19T22:23:22.710Z,87.62
2023-05-19T22:28:15.909Z,88.95
2023-05-19T22:30:19.990Z,88.98
2023-05-19T22:32:25.459Z,89.69
2023-05-19T22:34:20.760Z,90.77
2023-05-19T22:36:16.451Z,91.57
2023-05-19T22:38:11.974Z,91.50
2023-05-19T22:40:11.305Z,92.49
2023-05-19T22:42:07.477Z,92.92
2023-05-19T22:44:05.700Z,92.96
2023-05-19T22:46:00.944Z,93.99
2023-05-19T22:47:56.567Z,93.74
2023-05-19T22:49:54.826Z,94.40
2023-05-19T22:51:51.071Z,94.44
2023-05-19T22:53:46.831Z,95.22
2023-05-19T22:55:45.039Z,95.81
2023-05-19T22:57:40.198Z,96.65
2023-05-19T22:59:35.789Z,96.67
2023-05-19T23:01:31.116Z,96.74
2023-05-19T23:03:27.021Z,96.74
2023-05-19T23:05:25.676Z,97.21
2023-05-19T23:07:39.784Z,97.45
